createdAt,value
2023-02-17T00:01:24.591Z,7.80
2023-02-17T00:03:53.165Z,7.77
2023-02-17T00:06:23.440Z,8.83
2023-02-17T00:08:50.798Z,8.07
2023-02-17T00:11:18.596Z,7.47
2023-02-17T00:13:45.613Z,7.50
2023-02-17T00:16:23.562Z,7.17
2023-02-17T00:18:55.794Z,7.50
2023-02-17T00:21:24.648Z,7.50
2023-02-17T00:23:52.128Z,8.80
2023-02-17T00:26:20.198Z,7.23
2023-02-17T00:28:47.901Z,7.43
2023-02-17T00:31:20.568Z,6.67
2023-02-17T00:33:47.812Z,7.23
2023-02-17T00:36:17.965Z,7.83
2023-02-17T00:38:45.028Z,8.33
2023-02-17T00:41:11.802Z,6.77
2023-02-17T00:43:38.663Z,7.07
2023-02-17T00:46:06.451Z,6.87
2023-02-17T00:48:33.858Z,6.90
2023-02-17T00:51:00.856Z,7.03
2023-02-17T00:53:28.227Z,8.93
2023-02-17T00:55:55.113Z,7.13
2023-02-17T00:58:22.033Z,5.70
2023-02-17T01:00:48.915Z,6.43
2023-02-17T01:03:16.017Z,7.40
2023-02-17T01:05:44.590Z,6.30
2023-02-17T01:08:11.790Z,7.00
2023-02-17T01:10:40.431Z,8.03
2023-02-17T01:13:07.667Z,7.10
2023-02-17T01:15:39.608Z,6.80
2023-02-17T01:18:06.283Z,7.13
2023-02-17T01:20:37.708Z,7.33
2023-02-17T01:23:05.499Z,7.20
2023-02-17T01:25:36.132Z,6.83
2023-02-17T01:28:03.153Z,6.60
2023-02-17T01:30:29.946Z,6.40
2023-02-17T01:32:56.695Z,6.57
2023-02-17T01:35:23.411Z,5.90
2023-02-17T01:37:50.093Z,5.33
2023-02-17T01:40:20.709Z,6.60
2023-02-17T01:42:47.506Z,6.73
2023-02-17T01:45:19.993Z,6.37
2023-02-17T01:47:54.339Z,6.50
2023-02-17T01:50:25.061Z,6.60
2023-02-17T01:52:54.031Z,5.80
2023-02-17T01:55:22.286Z,5.60
2023-02-17T01:57:51.027Z,6.00
2023-02-17T02:00:19.928Z,6.23
2023-02-17T02:02:49.496Z,5.43
2023-02-17T02:05:18.760Z,5.20
2023-02-17T02:07:48.023Z,4.67
2023-02-17T02:10:16.117Z,6.27
2023-02-17T02:12:43.602Z,6.10
2023-02-17T02:15:14.806Z,6.77
2023-02-17T02:17:50.455Z,6.40
2023-02-17T02:20:41.401Z,5.30
2023-02-17T02:23:29.309Z,6.20
2023-02-17T02:26:19.610Z,5.73
2023-02-17T02:29:14.384Z,6.50
2023-02-17T02:31:59.226Z,5.53
2023-02-17T02:34:47.684Z,4.70
2023-02-17T02:37:20.673Z,6.10
2023-02-17T02:39:50.790Z,4.70
2023-02-17T02:42:23.938Z,5.30
2023-02-17T02:44:51.347Z,4.30
2023-02-17T02:47:50.515Z,5.20
2023-02-17T02:50:45.293Z,4.30
2023-02-17T02:53:11.977Z,5.33
2023-02-17T02:56:07.820Z,5.27
2023-02-17T02:58:53.379Z,5.43
2023-02-17T03:01:38.064Z,5.53
2023-02-17T03:04:15.605Z,5.20
2023-02-17T03:07:01.376Z,5.13
2023-02-17T03:09:29.103Z,4.97
2023-02-17T03:11:57.432Z,5.70
2023-02-17T03:14:24.578Z,4.27
2023-02-17T03:16:52.880Z,5.77
2023-02-17T03:19:23.490Z,4.90
2023-02-17T03:21:57.989Z,4.80
2023-02-17T03:24:24.864Z,6.67
2023-02-17T03:26:51.618Z,5.50
2023-02-17T03:29:18.405Z,5.10
2023-02-17T03:31:45.293Z,5.20
2023-02-17T03:34:12.194Z,5.93
2023-02-17T03:36:39.003Z,5.90
2023-02-17T03:39:05.725Z,6.20
2023-02-17T03:41:32.474Z,4.83
2023-02-17T03:43:59.318Z,5.97
2023-02-17T03:46:26.076Z,5.80
2023-02-17T03:48:52.790Z,4.80
2023-02-17T03:51:21.783Z,6.40
2023-02-17T03:53:49.812Z,5.63
2023-02-17T03:56:17.249Z,5.20
2023-02-17T03:58:44.138Z,4.50
2023-02-17T04:01:12.288Z,5.70
2023-02-17T04:03:39.532Z,5.00
2023-02-17T04:06:07.958Z,5.10
2023-02-17T04:08:35.105Z,5.20
2023-02-17T04:11:03.740Z,4.60
2023-02-17T04:13:30.481Z,4.43
2023-02-17T04:15:57.624Z,5.00
2023-02-17T04:18:24.529Z,5.27
2023-02-17T04:20:51.863Z,5.10
2023-02-17T04:23:18.710Z,5.50
2023-02-17T04:25:46.149Z,4.83
2023-02-17T04:28:15.120Z,5.00
2023-02-17T04:30:46.510Z,4.57
2023-02-17T04:33:13.463Z,5.00
2023-02-17T04:35:40.544Z,5.03
2023-02-17T04:38:08.536Z,4.50
2023-02-17T04:40:35.367Z,5.50
2023-02-17T04:43:02.126Z,4.80
2023-02-17T04:45:29.009Z,4.27
2023-02-17T04:47:55.703Z,5.00
2023-02-17T04:50:22.754Z,5.33
2023-02-17T04:52:49.637Z,4.67
2023-02-17T04:55:16.529Z,4.90
2023-02-17T04:57:43.329Z,4.00
2023-02-17T05:00:11.472Z,4.20
2023-02-17T05:02:38.484Z,4.97
2023-02-17T05:05:05.544Z,4.00
2023-02-17T05:07:32.377Z,4.83
2023-02-17T05:09:59.128Z,4.67
2023-02-17T05:12:25.936Z,4.43
2023-02-17T05:14:52.909Z,5.10
2023-02-17T05:17:19.630Z,4.80
2023-02-17T05:19:46.423Z,3.93
2023-02-17T05:22:13.203Z,4.27
2023-02-17T05:24:39.969Z,3.90
2023-02-17T05:27:06.774Z,4.37
2023-02-17T05:29:33.748Z,5.43
2023-02-17T05:32:00.544Z,5.37
2023-02-17T05:34:27.375Z,4.83
2023-02-17T05:36:54.144Z,4.87
2023-02-17T05:39:20.991Z,4.60
2023-02-17T05:41:47.803Z,5.00
2023-02-17T05:44:14.506Z,4.93
2023-02-17T05:46:41.335Z,5.57
2023-02-17T05:49:08.058Z,5.13
2023-02-17T05:51:34.862Z,4.20
2023-02-17T05:54:01.796Z,4.90
2023-02-17T05:56:28.561Z,5.40
2023-02-17T05:58:55.339Z,4.83
2023-02-17T06:01:22.086Z,6.00
2023-02-17T06:03:49.215Z,4.37
2023-02-17T06:06:15.950Z,4.50
2023-02-17T06:08:42.837Z,5.17
2023-02-17T06:11:09.700Z,4.57
2023-02-17T06:13:36.609Z,4.30
2023-02-17T06:16:03.538Z,4.87
2023-02-17T06:18:30.634Z,4.70
2023-02-17T06:20:58.400Z,4.93
2023-02-17T06:23:26.319Z,4.30
2023-02-17T06:25:54.203Z,5.27
2023-02-17T06:28:21.023Z,4.90
2023-02-17T06:30:47.802Z,4.23
2023-02-17T06:33:14.541Z,5.57
2023-02-17T06:35:41.293Z,4.53
2023-02-17T06:38:08.077Z,4.30
2023-02-17T06:40:34.884Z,4.37
2023-02-17T06:43:01.595Z,4.33
2023-02-17T06:45:28.379Z,4.30
2023-02-17T06:47:55.165Z,4.97
2023-02-17T06:50:21.946Z,4.50
2023-02-17T06:52:48.772Z,4.47
2023-02-17T06:55:15.658Z,3.93
2023-02-17T06:57:42.414Z,4.50
2023-02-17T07:00:09.876Z,4.80
2023-02-17T07:02:40.590Z,3.83
2023-02-17T07:05:08.209Z,5.27
2023-02-17T07:07:34.993Z,4.00
2023-02-17T07:10:03.421Z,4.13
2023-02-17T07:12:30.247Z,4.47
2023-02-17T07:14:57.271Z,5.17
2023-02-17T07:17:24.322Z,5.10
2023-02-17T07:19:51.119Z,5.03
2023-02-17T07:22:17.907Z,3.80
2023-02-17T07:24:44.657Z,5.27
2023-02-17T07:27:11.563Z,4.97
2023-02-17T07:29:38.316Z,4.37
2023-02-17T07:32:05.214Z,4.53
2023-02-17T07:34:32.043Z,4.50
2023-02-17T07:36:58.841Z,3.83
2023-02-17T07:39:26.375Z,4.70
2023-02-17T07:41:53.143Z,4.70
2023-02-17T07:44:19.841Z,4.27
2023-02-17T07:46:46.583Z,4.30
2023-02-17T07:49:14.771Z,5.30
2023-02-17T07:51:41.695Z,5.77
2023-02-17T07:54:08.441Z,4.47
2023-02-17T07:56:35.393Z,4.80
2023-02-17T07:59:02.209Z,4.10
2023-02-17T08:01:29.235Z,4.63
2023-02-17T08:03:56.934Z,4.50
2023-02-17T08:06:25.607Z,4.63
2023-02-17T08:09:11.959Z,4.93
2023-02-17T08:11:57.811Z,5.07
2023-02-17T08:14:26.631Z,3.20
2023-02-17T08:16:53.565Z,4.33
2023-02-17T08:19:20.696Z,4.67
2023-02-17T08:21:47.739Z,4.60
2023-02-17T08:24:16.309Z,4.43
2023-02-17T08:26:43.079Z,5.80
2023-02-17T08:29:09.850Z,5.07
2023-02-17T08:31:37.484Z,3.50
2023-02-17T08:34:09.332Z,4.73
2023-02-17T08:36:39.699Z,3.73
2023-02-17T08:39:12.302Z,3.47
2023-02-17T08:41:39.989Z,4.13
2023-02-17T08:44:18.609Z,4.80
2023-02-17T08:46:48.172Z,6.30
2023-02-17T08:49:17.186Z,5.27
2023-02-17T08:51:44.758Z,4.40
2023-02-17T08:54:12.169Z,4.70
2023-02-17T08:56:40.392Z,3.97
2023-02-17T08:59:08.918Z,4.27
2023-02-17T09:01:36.710Z,3.63
2023-02-17T09:04:05.366Z,3.77
2023-02-17T09:06:46.226Z,4.30
2023-02-17T09:09:15.577Z,4.87
2023-02-17T09:11:43.267Z,4.40
2023-02-17T09:14:10.516Z,3.30
2023-02-17T09:16:39.661Z,4.00
2023-02-17T09:19:07.883Z,3.70
2023-02-17T09:21:34.723Z,3.83
2023-02-17T09:24:01.556Z,4.50
2023-02-17T09:26:28.507Z,4.37
2023-02-17T09:28:55.327Z,4.17
2023-02-17T09:31:25.195Z,3.70
2023-02-17T09:33:52.316Z,4.00
2023-02-17T09:36:22.229Z,4.00
2023-02-17T09:38:50.211Z,3.33
2023-02-17T09:41:22.999Z,3.80
2023-02-17T09:43:51.900Z,3.67
2023-02-17T09:47:00.875Z,4.30
2023-02-17T09:49:35.050Z,4.67
2023-02-17T09:52:31.653Z,2.90
2023-02-17T09:55:30.099Z,4.23
2023-02-17T09:58:39.205Z,3.10
2023-02-17T10:01:12.318Z,3.70
2023-02-17T10:03:46.703Z,4.63
2023-02-17T10:06:24.870Z,3.60
2023-02-17T10:09:00.605Z,3.20
2023-02-17T10:11:30.230Z,3.97
2023-02-17T10:14:02.660Z,3.87
2023-02-17T10:16:36.403Z,3.50
2023-02-17T10:19:25.321Z,3.17
2023-02-17T10:22:27.305Z,3.10
2023-02-17T10:24:54.142Z,3.67
2023-02-17T10:27:28.562Z,4.03
2023-02-17T10:30:22.510Z,3.40
2023-02-17T10:33:01.125Z,3.33
2023-02-17T10:35:49.642Z,4.50
2023-02-17T10:38:18.111Z,3.30
2023-02-17T10:40:51.335Z,3.60
2023-02-17T10:43:31.044Z,3.80
2023-02-17T10:46:00.994Z,3.80
2023-02-17T10:48:39.088Z,3.53
2023-02-17T10:51:06.799Z,3.90
2023-02-17T10:53:40.525Z,3.80
2023-02-17T10:56:14.541Z,3.87
2023-02-17T10:58:53.513Z,4.67
2023-02-17T11:01:20.880Z,3.07
2023-02-17T11:03:47.663Z,3.87
2023-02-17T11:06:22.244Z,4.07
2023-02-17T11:08:48.940Z,3.70
2023-02-17T11:11:27.768Z,3.70
2023-02-17T11:14:06.717Z,3.60
2023-02-17T11:16:45.832Z,3.97
2023-02-17T11:19:29.441Z,4.43
2023-02-17T11:21:59.375Z,4.40
2023-02-17T11:24:27.666Z,4.23
2023-02-17T11:27:01.149Z,3.80
2023-02-17T11:29:29.453Z,3.80
2023-02-17T11:32:09.245Z,3.30
2023-02-17T11:34:39.199Z,3.47
2023-02-17T11:37:11.959Z,3.60
2023-02-17T11:39:40.995Z,4.00
2023-02-17T11:42:24.375Z,2.97
2023-02-17T11:44:52.551Z,3.83
2023-02-17T11:47:40.758Z,3.80
2023-02-17T11:50:13.249Z,3.57
2023-02-17T11:52:52.676Z,5.20
2023-02-17T11:55:38.275Z,4.00
2023-02-17T11:58:13.775Z,4.03
2023-02-17T12:01:05.476Z,4.53
2023-02-17T12:04:12.813Z,4.63
2023-02-17T12:07:02.363Z,3.30
2023-02-17T12:09:50.531Z,4.50
2023-02-17T12:12:24.607Z,4.00
2023-02-17T12:15:12.546Z,4.80
2023-02-17T12:18:11.711Z,4.20
2023-02-17T12:20:38.448Z,3.90
2023-02-17T12:23:19.033Z,3.27
2023-02-17T12:25:55.785Z,3.50
2023-02-17T12:28:40.634Z,3.77
2023-02-17T12:31:46.379Z,3.87
2023-02-17T12:34:24.240Z,3.30
2023-02-17T12:36:51.859Z,3.60
2023-02-17T12:39:30.145Z,3.40
2023-02-17T12:42:13.474Z,3.80
2023-02-17T12:44:47.695Z,3.30
2023-02-17T12:47:29.794Z,3.67
2023-02-17T12:50:06.374Z,3.80
2023-02-17T12:52:44.669Z,3.03
2023-02-17T12:55:46.751Z,3.80
2023-02-17T12:58:18.084Z,5.03
2023-02-17T13:01:09.328Z,3.70
2023-02-17T13:03:37.135Z,3.47
2023-02-17T13:06:18.757Z,3.83
2023-02-17T13:09:17.721Z,3.70
2023-02-17T13:11:45.644Z,4.07
2023-02-17T13:14:25.348Z,4.20
2023-02-17T13:16:52.248Z,3.70
2023-02-17T13:19:30.998Z,3.53
2023-02-17T13:21:59.967Z,3.27
2023-02-17T13:24:50.619Z,3.23
2023-02-17T13:27:35.835Z,3.90
2023-02-17T13:30:41.530Z,3.63
2023-02-17T13:33:20.293Z,3.57
2023-02-17T13:35:47.942Z,3.13
2023-02-17T13:38:30.039Z,3.57
2023-02-17T13:41:04.405Z,3.90
2023-02-17T13:43:39.774Z,4.67
2023-02-17T13:46:08.212Z,3.90
2023-02-17T13:48:36.043Z,3.80
2023-02-17T13:51:05.683Z,3.90
2023-02-17T13:53:37.736Z,5.13
2023-02-17T13:56:10.518Z,3.30
2023-02-17T13:58:40.211Z,3.20
2023-02-17T14:01:13.798Z,3.43
2023-02-17T14:03:40.513Z,4.07
2023-02-17T14:06:12.347Z,3.93
2023-02-17T14:08:40.478Z,4.20
2023-02-17T14:11:22.740Z,3.27
2023-02-17T14:13:52.550Z,3.27
2023-02-17T14:16:40.539Z,3.60
2023-02-17T14:19:19.461Z,3.60
2023-02-17T14:22:04.232Z,3.30
2023-02-17T14:24:37.530Z,3.53
2023-02-17T14:27:09.604Z,3.10
2023-02-17T14:29:40.794Z,3.93
2023-02-17T14:32:25.701Z,3.50
2023-02-17T14:34:52.479Z,3.70
2023-02-17T14:37:31.026Z,3.73
2023-02-17T14:39:57.735Z,3.80
2023-02-17T14:42:24.560Z,3.60
2023-02-17T14:44:51.377Z,2.93
2023-02-17T14:47:18.166Z,3.03
2023-02-17T14:49:44.900Z,3.00
2023-02-17T14:52:21.043Z,2.53
2023-02-17T14:54:48.104Z,4.00
2023-02-17T14:57:16.068Z,2.90
2023-02-17T14:59:43.446Z,3.63
2023-02-17T15:02:21.340Z,2.70
2023-02-17T15:04:48.108Z,3.77
2023-02-17T15:07:17.673Z,3.07
2023-02-17T15:09:46.274Z,3.77
2023-02-17T15:12:18.959Z,2.97
2023-02-17T15:14:47.089Z,3.60
2023-02-17T15:17:15.092Z,2.80
2023-02-17T15:19:44.072Z,4.30
2023-02-17T15:22:14.537Z,4.30
2023-02-17T15:24:41.585Z,3.13
2023-02-17T15:27:29.190Z,3.83
2023-02-17T15:29:58.582Z,3.17
2023-02-17T15:32:25.452Z,4.47
2023-02-17T15:35:00.590Z,3.73
2023-02-17T15:37:27.551Z,3.87
2023-02-17T15:39:54.330Z,4.20
2023-02-17T15:42:21.175Z,3.40
2023-02-17T15:44:49.966Z,3.70
2023-02-17T15:47:19.228Z,3.80
2023-02-17T15:49:46.278Z,3.80
2023-02-17T15:52:14.352Z,3.87
2023-02-17T15:54:42.660Z,3.33
2023-02-17T15:57:20.357Z,3.63
2023-02-17T15:59:47.231Z,4.60
2023-02-17T16:02:22.670Z,3.50
2023-02-17T16:04:50.009Z,3.30
2023-02-17T16:07:16.914Z,4.17
2023-02-17T16:09:43.699Z,3.50
2023-02-17T16:12:26.470Z,3.40
2023-02-17T16:14:53.949Z,4.00
2023-02-17T16:17:21.008Z,3.70
2023-02-17T16:19:47.826Z,3.47
2023-02-17T16:22:14.679Z,3.57
2023-02-17T16:24:41.465Z,5.60
2023-02-17T16:27:11.787Z,3.97
2023-02-17T16:29:38.612Z,3.27
2023-02-17T16:32:05.718Z,3.80
2023-02-17T16:34:33.514Z,4.00
2023-02-17T16:37:03.323Z,3.50
2023-02-17T16:39:30.180Z,4.30
2023-02-17T16:41:56.943Z,4.10
2023-02-17T16:44:24.059Z,3.77
2023-02-17T16:46:53.571Z,3.27
2023-02-17T16:49:32.011Z,3.53
2023-02-17T16:52:07.340Z,4.30
2023-02-17T16:54:35.752Z,3.83
2023-02-17T16:57:02.929Z,3.97
2023-02-17T16:59:29.922Z,4.00
2023-02-17T17:01:56.728Z,3.40
2023-02-17T17:04:24.517Z,3.20
2023-02-17T17:06:52.345Z,3.53
2023-02-17T17:09:22.207Z,3.43
2023-02-17T17:11:49.889Z,3.70
2023-02-17T17:14:16.974Z,3.30
2023-02-17T17:16:51.314Z,3.40
2023-02-17T17:19:18.373Z,3.63
2023-02-17T17:21:45.281Z,4.60
2023-02-17T17:24:12.067Z,3.90
2023-02-17T17:26:45.453Z,2.93
2023-02-17T17:29:14.200Z,4.87
2023-02-17T17:31:41.383Z,4.43
2023-02-17T17:34:08.291Z,4.10
2023-02-17T17:36:43.637Z,3.53
2023-02-17T17:39:22.757Z,3.17
2023-02-17T17:41:50.436Z,4.13
2023-02-17T17:44:18.037Z,4.00
2023-02-17T17:46:45.267Z,4.40
2023-02-17T17:49:13.800Z,4.20
2023-02-17T17:51:41.137Z,3.27
2023-02-17T17:54:08.683Z,4.20
2023-02-17T17:56:38.956Z,3.93
2023-02-17T17:59:06.436Z,3.60
2023-02-17T18:01:34.264Z,4.10
2023-02-17T18:04:01.572Z,3.17
2023-02-17T18:06:41.761Z,3.80
2023-02-17T18:09:17.095Z,3.90
2023-02-17T18:11:50.708Z,3.50
2023-02-17T18:14:17.589Z,3.77
2023-02-17T18:16:47.675Z,6.30
2023-02-17T18:19:17.223Z,4.90
2023-02-17T18:21:44.139Z,4.70
2023-02-17T18:24:11.081Z,4.07
2023-02-17T18:26:37.938Z,4.53
2023-02-17T18:29:05.048Z,3.80
2023-02-17T18:31:31.987Z,3.60
2023-02-17T18:33:58.768Z,4.83
2023-02-17T18:36:27.146Z,4.50
2023-02-17T18:38:54.134Z,3.93
2023-02-17T18:41:39.101Z,3.67
2023-02-17T18:44:06.087Z,4.67
2023-02-17T18:46:33.409Z,4.40
2023-02-17T18:49:00.226Z,3.90
2023-02-17T18:51:27.728Z,5.33
2023-02-17T18:53:56.546Z,3.47
2023-02-17T18:56:26.104Z,3.57
2023-02-17T18:58:55.275Z,3.50
2023-02-17T19:01:24.116Z,3.20
2023-02-17T19:03:51.971Z,3.87
2023-02-17T19:06:21.790Z,3.13
2023-02-17T19:08:49.432Z,4.00
2023-02-17T19:11:18.240Z,3.57
2023-02-17T19:13:45.353Z,3.63
2023-02-17T19:16:15.109Z,3.23
2023-02-17T19:18:42.964Z,3.20
2023-02-17T19:21:16.847Z,3.50
2023-02-17T19:23:43.926Z,4.60
2023-02-17T19:26:12.671Z,4.07
2023-02-17T19:28:40.076Z,3.70
2023-02-17T19:31:16.698Z,3.90
2023-02-17T19:33:45.745Z,4.83
2023-02-17T19:36:15.950Z,4.10
2023-02-17T19:38:42.771Z,7.07
2023-02-17T19:41:11.275Z,4.30
2023-02-17T19:43:38.469Z,4.40
2023-02-17T19:46:05.652Z,3.57
2023-02-17T19:48:33.124Z,3.40
2023-02-17T19:51:02.962Z,4.00
2023-02-17T19:53:31.480Z,3.30
2023-02-17T19:56:15.525Z,3.47
2023-02-17T19:58:43.857Z,4.37
2023-02-17T20:01:13.345Z,3.90
2023-02-17T20:03:40.558Z,3.20
2023-02-17T20:06:17.262Z,4.17
2023-02-17T20:08:45.692Z,4.00
2023-02-17T20:11:12.751Z,4.13
2023-02-17T20:13:45.949Z,3.93
2023-02-17T20:16:15.379Z,4.20
2023-02-17T20:18:46.429Z,3.10
2023-02-17T20:21:15.544Z,3.80
2023-02-17T20:23:42.437Z,4.10
2023-02-17T20:26:16.510Z,4.20
2023-02-17T20:28:43.716Z,3.03
2023-02-17T20:31:12.069Z,3.70
2023-02-17T20:33:40.518Z,3.80
2023-02-17T20:36:08.953Z,4.00
2023-02-17T20:38:37.612Z,4.00
2023-02-17T20:41:06.652Z,3.43
2023-02-17T20:43:34.409Z,3.30
2023-02-17T20:46:02.787Z,3.43
2023-02-17T20:48:29.786Z,2.83
2023-02-17T20:50:57.922Z,3.67
2023-02-17T20:53:25.988Z,3.97
2023-02-17T20:55:53.078Z,3.90
2023-02-17T20:58:20.398Z,3.17
2023-02-17T21:00:47.522Z,4.13
2023-02-17T21:03:14.626Z,2.43
2023-02-17T21:05:41.756Z,3.13
2023-02-17T21:08:09.054Z,3.20
2023-02-17T21:10:35.868Z,3.33
2023-02-17T21:13:02.681Z,3.50
2023-02-17T21:15:29.479Z,3.57
2023-02-17T21:17:56.278Z,3.27
2023-02-17T21:20:23.061Z,2.80
2023-02-17T21:22:50.139Z,3.57
2023-02-17T21:25:16.889Z,3.57
2023-02-17T21:27:43.626Z,2.83
2023-02-17T21:30:11.508Z,3.30
2023-02-17T21:32:38.572Z,3.03
2023-02-17T21:35:06.560Z,3.30
2023-02-17T21:37:34.389Z,4.50
2023-02-17T21:40:01.218Z,3.57
2023-02-17T21:42:46.434Z,3.13
2023-02-17T21:45:13.169Z,3.67
2023-02-17T21:47:39.904Z,3.10
2023-02-17T21:50:07.473Z,3.07
2023-02-17T21:52:34.244Z,3.13
2023-02-17T21:55:01.605Z,3.10
2023-02-17T21:57:28.713Z,4.20
2023-02-17T21:59:55.445Z,3.10
2023-02-17T22:02:22.253Z,3.20
2023-02-17T22:04:49.225Z,3.40
2023-02-17T22:07:16.012Z,3.33
2023-02-17T22:09:42.741Z,2.90
2023-02-17T22:12:09.489Z,3.40
2023-02-17T22:14:36.281Z,3.07
2023-02-17T22:17:03.314Z,3.00
2023-02-17T22:19:31.583Z,3.53
2023-02-17T22:21:58.474Z,4.10
2023-02-17T22:24:27.280Z,3.70
2023-02-17T22:26:54.714Z,6.00
2023-02-17T22:29:21.613Z,3.00
2023-02-17T22:31:50.488Z,3.40
2023-02-17T22:34:17.487Z,3.70
2023-02-17T22:36:44.303Z,2.87
2023-02-17T22:39:11.042Z,3.70
2023-02-17T22:41:39.373Z,3.20
2023-02-17T22:44:06.595Z,3.17
2023-02-17T22:46:34.523Z,3.27
2023-02-17T22:49:01.647Z,2.80
2023-02-17T22:51:31.416Z,3.50
2023-02-17T22:53:59.653Z,3.30
2023-02-17T22:56:26.646Z,2.67
2023-02-17T22:58:57.947Z,2.83
2023-02-17T23:01:25.329Z,2.93
2023-02-17T23:03:54.454Z,2.67
2023-02-17T23:06:25.395Z,2.33
2023-02-17T23:08:53.089Z,2.53
2023-02-17T23:11:44.076Z,2.47
2023-02-17T23:14:12.001Z,2.60
2023-02-17T23:16:38.970Z,2.40
2023-02-17T23:19:07.694Z,3.07
2023-02-17T23:21:34.922Z,2.50
2023-02-17T23:24:02.048Z,2.57
2023-02-17T23:26:28.859Z,1.80
2023-02-17T23:28:56.089Z,2.50
2023-02-17T23:31:22.945Z,2.37
2023-02-17T23:33:49.748Z,2.10
2023-02-17T23:36:16.575Z,2.20
2023-02-17T23:38:43.301Z,2.13
2023-02-17T23:41:11.106Z,2.40
2023-02-17T23:43:37.971Z,2.57
2023-02-17T23:46:05.058Z,2.00
2023-02-17T23:48:31.931Z,2.07
2023-02-17T23:51:00.739Z,1.70
2023-02-17T23:53:28.303Z,2.00
2023-02-17T23:56:06.774Z,2.03
2023-02-17T23:58:34.986Z,1.93
